sensor_id;sensor_type;location;lat;lon;timestamp;temperature;humidity
4739;DHT22;2383;48.632;10.156;2022-08-19T00:03:41;24.70;99.90
4739;DHT22;2383;48.632;10.156;2022-08-19T00:07:43;24.60;99.90
4739;DHT22;2383;48.632;10.156;2022-08-19T00:11:45;25.00;99.90
4739;DHT22;2383;48.632;10.156;2022-08-19T00:15:47;24.70;99.90
4739;DHT22;2383;48.632;10.156;2022-08-19T00:19:49;24.90;99.90
4739;DHT22;2383;48.632;10.156;2022-08-19T00:23:51;24.90;99.90
4739;DHT22;2383;48.632;10.156;2022-08-19T00:27:52;24.80;99.90
4739;DHT22;2383;48.632;10.156;2022-08-19T00:31:54;24.00;99.90
4739;DHT22;2383;48.632;10.156;2022-08-19T00:35:59;23.60;99.90
4739;DHT22;2383;48.632;10.156;2022-08-19T00:40:04;23.60;99.90
4739;DHT22;2383;48.632;10.156;2022-08-19T00:44:13;23.90;99.90
4739;DHT22;2383;48.632;10.156;2022-08-19T00:48:16;24.20;99.90
4739;DHT22;2383;48.632;10.156;2022-08-19T00:52:26;24.60;99.90
4739;DHT22;2383;48.632;10.156;2022-08-19T00:56:30;24.60;99.90
4739;DHT22;2383;48.632;10.156;2022-08-19T01:00:33;24.10;99.90
4739;DHT22;2383;48.632;10.156;2022-08-19T01:04:38;23.30;99.90
4739;DHT22;2383;48.632;10.156;2022-08-19T01:08:40;23.20;99.90
4739;DHT22;2383;48.632;10.156;2022-08-19T01:12:42;23.20;99.90
4739;DHT22;2383;48.632;10.156;2022-08-19T01:16:45;22.60;99.90
4739;DHT22;2383;48.632;10.156;2022-08-19T01:20:48;22.20;99.90
4739;DHT22;2383;48.632;10.156;2022-08-19T01:24:51;22.70;99.90
4739;DHT22;2383;48.632;10.156;2022-08-19T01:28:57;22.50;99.90
4739;DHT22;2383;48.632;10.156;2022-08-19T01:33:02;22.90;99.90
4739;DHT22;2383;48.632;10.156;2022-08-19T01:37:09;22.80;99.90
4739;DHT22;2383;48.632;10.156;2022-08-19T01:41:12;23.30;99.90
4739;DHT22;2383;48.632;10.156;2022-08-19T01:45:14;23.70;99.90
4739;DHT22;2383;48.632;10.156;2022-08-19T01:49:18;23.40;99.90
4739;DHT22;2383;48.632;10.156;2022-08-19T01:53:20;22.90;99.90
4739;DHT22;2383;48.632;10.156;2022-08-19T01:57:27;22.50;99.90
4739;DHT22;2383;48.632;10.156;2022-08-19T02:01:29;22.20;99.90
4739;DHT22;2383;48.632;10.156;2022-08-19T02:05:33;22.10;99.90
4739;DHT22;2383;48.632;10.156;2022-08-19T02:09:35;22.40;99.90
4739;DHT22;2383;48.632;10.156;2022-08-19T02:13:37;22.50;99.90
4739;DHT22;2383;48.632;10.156;2022-08-19T02:17:39;22.00;99.90
4739;DHT22;2383;48.632;10.156;2022-08-19T02:21:41;22.20;99.90
4739;DHT22;2383;48.632;10.156;2022-08-19T02:25:44;22.70;99.90
4739;DHT22;2383;48.632;10.156;2022-08-19T02:29:48;22.20;99.90
4739;DHT22;2383;48.632;10.156;2022-08-19T02:33:50;22.00;99.90
4739;DHT22;2383;48.632;10.156;2022-08-19T02:37:57;22.10;99.90
4739;DHT22;2383;48.632;10.156;2022-08-19T02:42:17;22.10;99.90
4739;DHT22;2383;48.632;10.156;2022-08-19T02:46:22;22.40;99.90
4739;DHT22;2383;48.632;10.156;2022-08-19T02:50:24;22.80;99.90
4739;DHT22;2383;48.632;10.156;2022-08-19T02:54:26;22.70;99.90
4739;DHT22;2383;48.632;10.156;2022-08-19T02:58:29;22.70;99.90
4739;DHT22;2383;48.632;10.156;2022-08-19T03:02:30;22.80;99.90
4739;DHT22;2383;48.632;10.156;2022-08-19T03:06:36;22.50;99.90
4739;DHT22;2383;48.632;10.156;2022-08-19T03:10:46;22.60;99.90
4739;DHT22;2383;48.632;10.156;2022-08-19T03:14:48;22.10;99.90
4739;DHT22;2383;48.632;10.156;2022-08-19T03:18:50;21.20;99.90
4739;DHT22;2383;48.632;10.156;2022-08-19T03:22:52;21.10;99.90
4739;DHT22;2383;48.632;10.156;2022-08-19T03:26:55;20.90;99.90
4739;DHT22;2383;48.632;10.156;2022-08-19T03:31:02;21.00;99.90
4739;DHT22;2383;48.632;10.156;2022-08-19T03:35:04;21.50;99.90
4739;DHT22;2383;48.632;10.156;2022-08-19T03:39:07;22.60;99.90
4739;DHT22;2383;48.632;10.156;2022-08-19T03:43:09;22.70;99.90
4739;DHT22;2383;48.632;10.156;2022-08-19T03:47:11;22.50;99.90
4739;DHT22;2383;48.632;10.156;2022-08-19T03:51:20;22.50;99.90
4739;DHT22;2383;48.632;10.156;2022-08-19T03:55:31;22.30;99.90
4739;DHT22;2383;48.632;10.156;2022-08-19T03:59:35;22.10;99.90
4739;DHT22;2383;48.632;10.156;2022-08-19T04:03:39;21.40;99.90
4739;DHT22;2383;48.632;10.156;2022-08-19T04:07:41;21.40;99.90
4739;DHT22;2383;48.632;10.156;2022-08-19T04:11:49;21.50;99.90
4739;DHT22;2383;48.632;10.156;2022-08-19T04:15:51;22.20;99.90
4739;DHT22;2383;48.632;10.156;2022-08-19T04:19:54;22.50;99.90
4739;DHT22;2383;48.632;10.156;2022-08-19T04:23:57;22.70;99.90
4739;DHT22;2383;48.632;10.156;2022-08-19T04:27:58;22.40;99.90
4739;DHT22;2383;48.632;10.156;2022-08-19T04:32:01;22.30;99.90
4739;DHT22;2383;48.632;10.156;2022-08-19T04:36:21;21.70;99.90
4739;DHT22;2383;48.632;10.156;2022-08-19T04:40:23;22.00;99.90
4739;DHT22;2383;48.632;10.156;2022-08-19T04:44:43;22.20;99.90
4739;DHT22;2383;48.632;10.156;2022-08-19T04:48:47;22.50;99.90
4739;DHT22;2383;48.632;10.156;2022-08-19T04:52:51;22.50;99.90
4739;DHT22;2383;48.632;10.156;2022-08-19T04:56:53;22.70;99.90
4739;DHT22;2383;48.632;10.156;2022-08-19T05:00:55;22.40;99.90
4739;DHT22;2383;48.632;10.156;2022-08-19T05:04:58;22.40;99.90
4739;DHT22;2383;48.632;10.156;2022-08-19T05:09:05;21.80;99.90
4739;DHT22;2383;48.632;10.156;2022-08-19T05:13:07;21.80;99.90
4739;DHT22;2383;48.632;10.156;2022-08-19T05:17:11;23.00;99.90
4739;DHT22;2383;48.632;10.156;2022-08-19T05:21:29;23.60;99.90
4739;DHT22;2383;48.632;10.156;2022-08-19T05:25:51;23.90;99.90
4739;DHT22;2383;48.632;10.156;2022-08-19T05:29:53;24.10;99.90
4739;DHT22;2383;48.632;10.156;2022-08-19T05:33:55;24.00;99.90
4739;DHT22;2383;48.632;10.156;2022-08-19T05:37:59;24.00;99.90
4739;DHT22;2383;48.632;10.156;2022-08-19T05:42:07;24.10;99.90
4739;DHT22;2383;48.632;10.156;2022-08-19T05:46:19;24.30;99.90
4739;DHT22;2383;48.632;10.156;2022-08-19T05:50:28;24.00;99.90
4739;DHT22;2383;48.632;10.156;2022-08-19T05:54:32;23.20;99.90
4739;DHT22;2383;48.632;10.156;2022-08-19T05:58:35;23.60;99.90
4739;DHT22;2383;48.632;10.156;2022-08-19T06:02:36;24.00;99.90
4739;DHT22;2383;48.632;10.156;2022-08-19T06:06:39;24.00;99.90
4739;DHT22;2383;48.632;10.156;2022-08-19T06:10:40;24.20;99.90
4739;DHT22;2383;48.632;10.156;2022-08-19T06:14:42;23.80;99.90
4739;DHT22;2383;48.632;10.156;2022-08-19T06:18:44;23.90;99.90
4739;DHT22;2383;48.632;10.156;2022-08-19T06:22:48;24.20;99.90
4739;DHT22;2383;48.632;10.156;2022-08-19T06:26:55;24.20;99.90
4739;DHT22;2383;48.632;10.156;2022-08-19T06:31:06;23.60;99.90
4739;DHT22;2383;48.632;10.156;2022-08-19T06:35:08;22.90;99.90
4739;DHT22;2383;48.632;10.156;2022-08-19T06:39:16;23.00;99.90
4739;DHT22;2383;48.632;10.156;2022-08-19T06:43:18;22.50;99.90
4739;DHT22;2383;48.632;10.156;2022-08-19T06:47:21;22.00;99.90
4739;DHT22;2383;48.632;10.156;2022-08-19T06:51:29;21.70;99.90
4739;DHT22;2383;48.632;10.156;2022-08-19T06:55:32;21.70;99.90
4739;DHT22;2383;48.632;10.156;2022-08-19T06:59:36;21.50;99.90
4739;DHT22;2383;48.632;10.156;2022-08-19T07:03:39;21.50;99.90
4739;DHT22;2383;48.632;10.156;2022-08-19T07:07:41;21.70;99.90
4739;DHT22;2383;48.632;10.156;2022-08-19T07:11:50;21.80;99.90
4739;DHT22;2383;48.632;10.156;2022-08-19T07:15:52;21.50;99.90
4739;DHT22;2383;48.632;10.156;2022-08-19T07:19:54;21.80;99.90
4739;DHT22;2383;48.632;10.156;2022-08-19T07:23:58;21.80;99.90
4739;DHT22;2383;48.632;10.156;2022-08-19T07:28:05;22.10;99.90
4739;DHT22;2383;48.632;10.156;2022-08-19T07:32:25;21.60;99.90
4739;DHT22;2383;48.632;10.156;2022-08-19T07:36:28;21.80;99.90
4739;DHT22;2383;48.632;10.156;2022-08-19T07:40:33;22.60;99.90
4739;DHT22;2383;48.632;10.156;2022-08-19T07:44:36;22.60;99.90
4739;DHT22;2383;48.632;10.156;2022-08-19T07:48:38;22.10;99.90
4739;DHT22;2383;48.632;10.156;2022-08-19T07:52:40;21.80;99.90
4739;DHT22;2383;48.632;10.156;2022-08-19T07:56:49;22.40;99.90
4739;DHT22;2383;48.632;10.156;2022-08-19T08:00:53;22.10;99.90
4739;DHT22;2383;48.632;10.156;2022-08-19T08:04:55;23.00;99.90
4739;DHT22;2383;48.632;10.156;2022-08-19T08:09:18;23.50;99.90
4739;DHT22;2383;48.632;10.156;2022-08-19T08:13:25;23.60;99.90
4739;DHT22;2383;48.632;10.156;2022-08-19T08:17:28;23.40;99.90
4739;DHT22;2383;48.632;10.156;2022-08-19T08:21:51;23.00;99.90
4739;DHT22;2383;48.632;10.156;2022-08-19T08:25:56;23.20;99.90
4739;DHT22;2383;48.632;10.156;2022-08-19T08:29:58;22.80;99.90
4739;DHT22;2383;48.632;10.156;2022-08-19T08:34:03;21.80;99.90
4739;DHT22;2383;48.632;10.156;2022-08-19T08:38:05;22.50;99.90
4739;DHT22;2383;48.632;10.156;2022-08-19T08:42:17;23.00;99.90
4739;DHT22;2383;48.632;10.156;2022-08-19T08:46:41;22.50;99.90
4739;DHT22;2383;48.632;10.156;2022-08-19T08:50:47;23.00;99.90
4739;DHT22;2383;48.632;10.156;2022-08-19T08:54:54;23.30;99.90
4739;DHT22;2383;48.632;10.156;2022-08-19T08:59:05;23.60;99.90
4739;DHT22;2383;48.632;10.156;2022-08-19T09:03:22;22.90;99.90
4739;DHT22;2383;48.632;10.156;2022-08-19T09:08:00;22.80;99.90
4739;DHT22;2383;48.632;10.156;2022-08-19T09:16:43;22.90;99.90
4739;DHT22;2383;48.632;10.156;2022-08-19T09:20:45;22.40;99.90
4739;DHT22;2383;48.632;10.156;2022-08-19T09:24:50;22.20;99.90
4739;DHT22;2383;48.632;10.156;2022-08-19T09:28:53;23.30;99.90
4739;DHT22;2383;48.632;10.156;2022-08-19T09:32:59;23.40;99.90
4739;DHT22;2383;48.632;10.156;2022-08-19T09:37:01;23.00;99.90
4739;DHT22;2383;48.632;10.156;2022-08-19T09:41:06;21.90;99.90
4739;DHT22;2383;48.632;10.156;2022-08-19T09:45:08;22.50;99.90
4739;DHT22;2383;48.632;10.156;2022-08-19T09:49:24;22.10;99.90
4739;DHT22;2383;48.632;10.156;2022-08-19T09:53:26;22.20;99.90
4739;DHT22;2383;48.632;10.156;2022-08-19T09:57:29;21.60;99.90
4739;DHT22;2383;48.632;10.156;2022-08-19T10:01:31;21.30;99.90
4739;DHT22;2383;48.632;10.156;2022-08-19T10:05:33;20.50;99.90
4739;DHT22;2383;48.632;10.156;2022-08-19T10:09:50;21.30;99.90
4739;DHT22;2383;48.632;10.156;2022-08-19T10:13:52;21.70;99.90
4739;DHT22;2383;48.632;10.156;2022-08-19T10:17:54;21.80;99.90
4739;DHT22;2383;48.632;10.156;2022-08-19T10:21:56;21.00;99.90
4739;DHT22;2383;48.632;10.156;2022-08-19T10:26:01;21.40;99.90
4739;DHT22;2383;48.632;10.156;2022-08-19T10:30:03;21.70;99.90
4739;DHT22;2383;48.632;10.156;2022-08-19T10:34:10;21.80;99.90
4739;DHT22;2383;48.632;10.156;2022-08-19T10:38:27;22.20;99.90
4739;DHT22;2383;48.632;10.156;2022-08-19T10:42:34;22.00;99.90
4739;DHT22;2383;48.632;10.156;2022-08-19T10:46:38;21.60;99.90
4739;DHT22;2383;48.632;10.156;2022-08-19T10:50:48;22.10;99.90
4739;DHT22;2383;48.632;10.156;2022-08-19T10:55:09;22.20;99.90
4739;DHT22;2383;48.632;10.156;2022-08-19T10:59:30;22.70;99.90
4739;DHT22;2383;48.632;10.156;2022-08-19T11:03:36;22.90;99.90
4739;DHT22;2383;48.632;10.156;2022-08-19T11:07:39;22.80;99.90
4739;DHT22;2383;48.632;10.156;2022-08-19T11:11:41;22.60;99.90
4739;DHT22;2383;48.632;10.156;2022-08-19T11:15:43;23.40;99.90
4739;DHT22;2383;48.632;10.156;2022-08-19T11:19:47;22.70;99.90
4739;DHT22;2383;48.632;10.156;2022-08-19T11:23:52;22.50;99.90
4739;DHT22;2383;48.632;10.156;2022-08-19T11:27:53;22.40;99.90
4739;DHT22;2383;48.632;10.156;2022-08-19T11:31:56;22.40;99.90
4739;DHT22;2383;48.632;10.156;2022-08-19T11:35:58;22.90;99.90
4739;DHT22;2383;48.632;10.156;2022-08-19T11:40:01;22.90;99.90
4739;DHT22;2383;48.632;10.156;2022-08-19T11:44:03;23.40;99.90
4739;DHT22;2383;48.632;10.156;2022-08-19T11:48:06;23.20;99.90
4739;DHT22;2383;48.632;10.156;2022-08-19T11:52:08;22.60;99.90
4739;DHT22;2383;48.632;10.156;2022-08-19T11:56:11;22.00;99.90
4739;DHT22;2383;48.632;10.156;2022-08-19T12:00:13;22.10;99.90
4739;DHT22;2383;48.632;10.156;2022-08-19T12:04:15;22.50;99.90
4739;DHT22;2383;48.632;10.156;2022-08-19T12:08:19;21.70;99.90
4739;DHT22;2383;48.632;10.156;2022-08-19T12:12:21;21.00;99.90
4739;DHT22;2383;48.632;10.156;2022-08-19T12:16:27;21.80;99.90
4739;DHT22;2383;48.632;10.156;2022-08-19T12:20:29;21.60;99.90
4739;DHT22;2383;48.632;10.156;2022-08-19T12:24:32;22.10;99.90
4739;DHT22;2383;48.632;10.156;2022-08-19T12:28:34;22.10;99.90
4739;DHT22;2383;48.632;10.156;2022-08-19T12:32:36;22.10;99.90
4739;DHT22;2383;48.632;10.156;2022-08-19T12:36:38;22.00;99.90
4739;DHT22;2383;48.632;10.156;2022-08-19T12:40:40;22.60;99.90
4739;DHT22;2383;48.632;10.156;2022-08-19T12:44:43;22.60;99.90
4739;DHT22;2383;48.632;10.156;2022-08-19T12:48:45;22.40;99.90
4739;DHT22;2383;48.632;10.156;2022-08-19T12:52:47;22.80;99.90
4739;DHT22;2383;48.632;10.156;2022-08-19T12:56:49;22.30;99.90
4739;DHT22;2383;48.632;10.156;2022-08-19T13:00:51;21.80;99.90
4739;DHT22;2383;48.632;10.156;2022-08-19T13:04:53;21.70;99.90
4739;DHT22;2383;48.632;10.156;2022-08-19T13:08:55;21.90;99.90
4739;DHT22;2383;48.632;10.156;2022-08-19T13:13:02;22.20;99.90
4739;DHT22;2383;48.632;10.156;2022-08-19T13:17:06;21.20;99.90
4739;DHT22;2383;48.632;10.156;2022-08-19T13:21:10;21.70;99.90
4739;DHT22;2383;48.632;10.156;2022-08-19T13:25:15;21.10;99.90
4739;DHT22;2383;48.632;10.156;2022-08-19T13:29:18;21.10;99.90
4739;DHT22;2383;48.632;10.156;2022-08-19T13:33:43;21.10;99.90
4739;DHT22;2383;48.632;10.156;2022-08-19T13:37:46;20.50;99.90
4739;DHT22;2383;48.632;10.156;2022-08-19T13:41:48;20.00;99.90
4739;DHT22;2383;48.632;10.156;2022-08-19T13:45:53;21.00;99.90
4739;DHT22;2383;48.632;10.156;2022-08-19T13:49:57;21.10;99.90
4739;DHT22;2383;48.632;10.156;2022-08-19T13:53:58;21.20;99.90
4739;DHT22;2383;48.632;10.156;2022-08-19T13:58:00;20.80;99.90
4739;DHT22;2383;48.632;10.156;2022-08-19T14:02:05;19.90;99.90
4739;DHT22;2383;48.632;10.156;2022-08-19T14:06:07;20.10;99.90
4739;DHT22;2383;48.632;10.156;2022-08-19T14:10:13;19.60;99.90
4739;DHT22;2383;48.632;10.156;2022-08-19T14:14:15;19.50;99.90
4739;DHT22;2383;48.632;10.156;2022-08-19T14:18:18;19.90;99.90
4739;DHT22;2383;48.632;10.156;2022-08-19T14:22:20;20.30;99.90
4739;DHT22;2383;48.632;10.156;2022-08-19T14:26:23;20.90;99.90
4739;DHT22;2383;48.632;10.156;2022-08-19T14:30:28;20.50;99.90
4739;DHT22;2383;48.632;10.156;2022-08-19T14:34:30;20.50;99.90
4739;DHT22;2383;48.632;10.156;2022-08-19T14:38:32;21.30;99.90
4739;DHT22;2383;48.632;10.156;2022-08-19T14:42:34;21.60;99.90
4739;DHT22;2383;48.632;10.156;2022-08-19T14:46:36;21.00;99.90
4739;DHT22;2383;48.632;10.156;2022-08-19T14:50:38;20.70;99.90
4739;DHT22;2383;48.632;10.156;2022-08-19T14:54:40;19.80;99.90
4739;DHT22;2383;48.632;10.156;2022-08-19T14:58:42;19.80;99.90
4739;DHT22;2383;48.632;10.156;2022-08-19T15:02:44;20.10;99.90
4739;DHT22;2383;48.632;10.156;2022-08-19T15:06:46;20.10;99.90
4739;DHT22;2383;48.632;10.156;2022-08-19T15:10:48;19.70;99.90
4739;DHT22;2383;48.632;10.156;2022-08-19T15:14:50;20.40;99.90
4739;DHT22;2383;48.632;10.156;2022-08-19T15:18:58;20.80;99.90
4739;DHT22;2383;48.632;10.156;2022-08-19T15:23:01;21.50;99.90
4739;DHT22;2383;48.632;10.156;2022-08-19T15:27:03;21.50;99.90
4739;DHT22;2383;48.632;10.156;2022-08-19T15:31:06;21.70;99.90
4739;DHT22;2383;48.632;10.156;2022-08-19T15:35:19;22.20;99.90
4739;DHT22;2383;48.632;10.156;2022-08-19T15:39:22;22.50;99.90
4739;DHT22;2383;48.632;10.156;2022-08-19T15:43:23;22.80;99.90
4739;DHT22;2383;48.632;10.156;2022-08-19T15:47:28;22.90;99.90
4739;DHT22;2383;48.632;10.156;2022-08-19T15:51:37;22.90;99.90
4739;DHT22;2383;48.632;10.156;2022-08-19T15:55:44;23.00;99.90
4739;DHT22;2383;48.632;10.156;2022-08-19T15:59:46;22.90;99.90
4739;DHT22;2383;48.632;10.156;2022-08-19T16:04:07;23.00;99.90
4739;DHT22;2383;48.632;10.156;2022-08-19T16:08:28;23.00;99.90
4739;DHT22;2383;48.632;10.156;2022-08-19T16:12:29;23.00;99.90
4739;DHT22;2383;48.632;10.156;2022-08-19T16:16:33;23.10;99.90
4739;DHT22;2383;48.632;10.156;2022-08-19T16:20:35;23.20;99.90
4739;DHT22;2383;48.632;10.156;2022-08-19T16:24:37;23.30;99.90
4739;DHT22;2383;48.632;10.156;2022-08-19T16:28:39;23.40;99.90
4739;DHT22;2383;48.632;10.156;2022-08-19T16:32:42;23.50;99.90
4739;DHT22;2383;48.632;10.156;2022-08-19T16:36:44;23.30;99.90
4739;DHT22;2383;48.632;10.156;2022-08-19T16:40:46;23.30;99.90
4739;DHT22;2383;48.632;10.156;2022-08-19T16:44:49;23.40;99.90
4739;DHT22;2383;48.632;10.156;2022-08-19T16:48:51;23.40;99.90
4739;DHT22;2383;48.632;10.156;2022-08-19T16:52:53;23.00;99.90
4739;DHT22;2383;48.632;10.156;2022-08-19T16:56:58;23.40;99.90
4739;DHT22;2383;48.632;10.156;2022-08-19T17:01:05;23.20;99.90
4739;DHT22;2383;48.632;10.156;2022-08-19T17:05:08;23.20;99.90
4739;DHT22;2383;48.632;10.156;2022-08-19T17:09:10;23.20;99.90
4739;DHT22;2383;48.632;10.156;2022-08-19T17:13:13;23.30;99.90
4739;DHT22;2383;48.632;10.156;2022-08-19T17:17:15;23.30;99.90
4739;DHT22;2383;48.632;10.156;2022-08-19T17:21:18;23.10;99.90
4739;DHT22;2383;48.632;10.156;2022-08-19T17:25:20;23.50;99.90
4739;DHT22;2383;48.632;10.156;2022-08-19T17:29:22;23.60;99.90
4739;DHT22;2383;48.632;10.156;2022-08-19T17:33:24;23.60;99.90
4739;DHT22;2383;48.632;10.156;2022-08-19T17:37:26;23.60;99.90
4739;DHT22;2383;48.632;10.156;2022-08-19T17:41:29;23.70;99.90
4739;DHT22;2383;48.632;10.156;2022-08-19T17:45:31;23.50;99.90
4739;DHT22;2383;48.632;10.156;2022-08-19T17:49:32;23.50;99.90
4739;DHT22;2383;48.632;10.156;2022-08-19T17:53:36;23.50;99.90
4739;DHT22;2383;48.632;10.156;2022-08-19T17:57:38;23.60;99.90
4739;DHT22;2383;48.632;10.156;2022-08-19T18:01:47;23.80;99.90
4739;DHT22;2383;48.632;10.156;2022-08-19T18:05:54;23.90;99.90
4739;DHT22;2383;48.632;10.156;2022-08-19T18:09:56;23.80;99.90
4739;DHT22;2383;48.632;10.156;2022-08-19T18:14:02;23.30;99.90
4739;DHT22;2383;48.632;10.156;2022-08-19T18:18:04;23.60;99.90
4739;DHT22;2383;48.632;10.156;2022-08-19T18:22:31;23.70;99.90
4739;DHT22;2383;48.632;10.156;2022-08-19T18:26:35;23.90;99.90
4739;DHT22;2383;48.632;10.156;2022-08-19T18:30:37;24.00;99.90
4739;DHT22;2383;48.632;10.156;2022-08-19T18:34:42;24.00;99.90
4739;DHT22;2383;48.632;10.156;2022-08-19T18:38:43;23.70;99.90
4739;DHT22;2383;48.632;10.156;2022-08-19T18:43:09;23.50;99.90
4739;DHT22;2383;48.632;10.156;2022-08-19T18:47:20;23.50;99.90
4739;DHT22;2383;48.632;10.156;2022-08-19T18:51:40;23.60;99.90
4739;DHT22;2383;48.632;10.156;2022-08-19T18:55:42;23.70;99.90
4739;DHT22;2383;48.632;10.156;2022-08-19T18:59:43;23.50;99.90
4739;DHT22;2383;48.632;10.156;2022-08-19T19:03:51;23.60;99.90
4739;DHT22;2383;48.632;10.156;2022-08-19T19:07:53;23.30;99.90
4739;DHT22;2383;48.632;10.156;2022-08-19T19:11:58;23.20;99.90
4739;DHT22;2383;48.632;10.156;2022-08-19T19:16:00;23.30;99.90
4739;DHT22;2383;48.632;10.156;2022-08-19T19:20:04;23.30;99.90
4739;DHT22;2383;48.632;10.156;2022-08-19T19:24:06;23.10;99.90
4739;DHT22;2383;48.632;10.156;2022-08-19T19:28:09;23.40;99.90
4739;DHT22;2383;48.632;10.156;2022-08-19T19:32:21;23.50;99.90
4739;DHT22;2383;48.632;10.156;2022-08-19T19:36:24;23.70;99.90
4739;DHT22;2383;48.632;10.156;2022-08-19T19:40:25;23.80;99.90
4739;DHT22;2383;48.632;10.156;2022-08-19T19:44:28;23.80;99.90
4739;DHT22;2383;48.632;10.156;2022-08-19T19:48:33;23.80;99.90
4739;DHT22;2383;48.632;10.156;2022-08-19T19:52:36;23.80;99.90
4739;DHT22;2383;48.632;10.156;2022-08-19T19:56:40;23.80;99.90
4739;DHT22;2383;48.632;10.156;2022-08-19T20:00:43;23.80;99.90
4739;DHT22;2383;48.632;10.156;2022-08-19T20:04:46;23.80;99.90
4739;DHT22;2383;48.632;10.156;2022-08-19T20:08:48;23.60;99.90
4739;DHT22;2383;48.632;10.156;2022-08-19T20:13:09;23.50;99.90
4739;DHT22;2383;48.632;10.156;2022-08-19T20:17:11;23.40;99.90
4739;DHT22;2383;48.632;10.156;2022-08-19T20:21:13;23.40;99.90
4739;DHT22;2383;48.632;10.156;2022-08-19T20:25:17;23.60;99.90
4739;DHT22;2383;48.632;10.156;2022-08-19T20:29:22;23.60;99.90
4739;DHT22;2383;48.632;10.156;2022-08-19T20:33:41;23.40;99.90
4739;DHT22;2383;48.632;10.156;2022-08-19T20:37:43;23.70;99.90
4739;DHT22;2383;48.632;10.156;2022-08-19T20:41:45;23.80;99.90
4739;DHT22;2383;48.632;10.156;2022-08-19T20:45:47;23.80;99.90
4739;DHT22;2383;48.632;10.156;2022-08-19T20:49:49;23.70;99.90
4739;DHT22;2383;48.632;10.156;2022-08-19T20:53:52;23.80;99.90
4739;DHT22;2383;48.632;10.156;2022-08-19T20:57:53;23.90;99.90
4739;DHT22;2383;48.632;10.156;2022-08-19T21:01:55;24.00;99.90
4739;DHT22;2383;48.632;10.156;2022-08-19T21:05:57;24.00;99.90
4739;DHT22;2383;48.632;10.156;2022-08-19T21:09:59;24.00;99.90
4739;DHT22;2383;48.632;10.156;2022-08-19T21:14:01;24.00;99.90
4739;DHT22;2383;48.632;10.156;2022-08-19T21:18:04;24.10;99.90
4739;DHT22;2383;48.632;10.156;2022-08-19T21:22:05;23.90;99.90
4739;DHT22;2383;48.632;10.156;2022-08-19T21:26:07;24.00;99.90
4739;DHT22;2383;48.632;10.156;2022-08-19T21:30:10;24.10;99.90
4739;DHT22;2383;48.632;10.156;2022-08-19T21:34:12;24.10;99.90
4739;DHT22;2383;48.632;10.156;2022-08-19T21:38:14;24.10;99.90
4739;DHT22;2383;48.632;10.156;2022-08-19T21:42:16;24.10;99.90
4739;DHT22;2383;48.632;10.156;2022-08-19T21:46:18;24.10;99.90
4739;DHT22;2383;48.632;10.156;2022-08-19T21:50:20;24.00;99.90
4739;DHT22;2383;48.632;10.156;2022-08-19T21:54:29;24.00;99.90
4739;DHT22;2383;48.632;10.156;2022-08-19T21:58:39;24.00;99.90
4739;DHT22;2383;48.632;10.156;2022-08-19T22:02:41;24.10;99.90
4739;DHT22;2383;48.632;10.156;2022-08-19T22:06:43;24.10;99.90
4739;DHT22;2383;48.632;10.156;2022-08-19T22:10:46;24.00;99.90
4739;DHT22;2383;48.632;10.156;2022-08-19T22:14:51;23.80;99.90
4739;DHT22;2383;48.632;10.156;2022-08-19T22:18:53;23.80;99.90
4739;DHT22;2383;48.632;10.156;2022-08-19T22:23:00;23.70;99.90
4739;DHT22;2383;48.632;10.156;2022-08-19T22:27:03;23.60;99.90
4739;DHT22;2383;48.632;10.156;2022-08-19T22:31:09;23.80;99.90
4739;DHT22;2383;48.632;10.156;2022-08-19T22:35:11;23.60;99.90
4739;DHT22;2383;48.632;10.156;2022-08-19T22:39:13;23.40;99.90
4739;DHT22;2383;48.632;10.156;2022-08-19T22:43:18;23.50;99.90
4739;DHT22;2383;48.632;10.156;2022-08-19T22:47:20;23.50;99.90
4739;DHT22;2383;48.632;10.156;2022-08-19T22:51:26;23.60;99.90
4739;DHT22;2383;48.632;10.156;2022-08-19T22:55:46;23.40;99.90
4739;DHT22;2383;48.632;10.156;2022-08-19T22:59:50;23.50;99.90
4739;DHT22;2383;48.632;10.156;2022-08-19T23:03:51;23.60;99.90
4739;DHT22;2383;48.632;10.156;2022-08-19T23:07:55;23.70;99.90
4739;DHT22;2383;48.632;10.156;2022-08-19T23:11:58;23.60;99.90
4739;DHT22;2383;48.632;10.156;2022-08-19T23:16:01;23.70;99.90
4739;DHT22;2383;48.632;10.156;2022-08-19T23:20:04;23.70;99.90
4739;DHT22;2383;48.632;10.156;2022-08-19T23:24:07;23.70;99.90
4739;DHT22;2383;48.632;10.156;2022-08-19T23:28:09;23.70;99.90
4739;DHT22;2383;48.632;10.156;2022-08-19T23:32:33;23.70;99.90
4739;DHT22;2383;48.632;10.156;2022-08-19T23:36:35;23.60;99.90
4739;DHT22;2383;48.632;10.156;2022-08-19T23:40:37;23.60;99.90
4739;DHT22;2383;48.632;10.156;2022-08-19T23:44:40;23.50;99.90
4739;DHT22;2383;48.632;10.156;2022-08-19T23:48:53;23.60;99.90
4739;DHT22;2383;48.632;10.156;2022-08-19T23:52:58;23.50;99.90
4739;DHT22;2383;48.632;10.156;2022-08-19T23:57:00;23.30;99.90
